Time;durP1;ratioP1;P1;durP2;ratioP2;P2;SDS_P1;SDS_P2;PMS_P1;PMS_P2;Temp;Humidity;BMP_temperature;BMP_pressure;BME280_temperature;BME280_humidity;BME280_pressure;Samples;Min_cycle;Max_cycle;Signal;HPM_P1;HPM_P2
2022/04/04 00:00:15;;;;;;;3.73;3.23;;;2.50;99.90;;;;;;4996241;28;20191;-80
2022/04/04 00:02:41;;;;;;;5.63;3.20;;;2.50;99.90;;;;;;4996673;28;20179;-79
2022/04/04 00:05:11;;;;;;;5.67;2.87;;;2.40;99.90;;;;;;4995563;28;20210;-80
2022/04/04 00:07:38;;;;;;;4.03;3.30;;;2.40;99.90;;;;;;4996543;28;20497;-79
2022/04/04 00:10:05;;;;;;;5.07;3.40;;;2.40;99.90;;;;;;4996547;28;20169;-80
2022/04/04 00:12:31;;;;;;;6.57;3.63;;;2.40;99.90;;;;;;4995262;28;20184;-80
2022/04/04 00:14:57;;;;;;;4.97;2.70;;;2.40;99.90;;;;;;4995251;28;20235;-79
2022/04/04 00:17:23;;;;;;;4.17;3.07;;;2.40;99.90;;;;;;4996432;28;20653;-79
2022/04/04 00:22:24;;;;;;;3.67;3.03;;;2.40;99.90;;;;;;5109563;23;20327;-82
2022/04/04 00:24:49;;;;;;;4.00;3.03;;;2.40;99.90;;;;;;4977039;28;20630;-83
2022/04/04 00:27:15;;;;;;;5.57;3.20;;;2.40;99.90;;;;;;4993330;28;20207;-83
2022/04/04 00:29:41;;;;;;;4.80;2.90;;;2.40;99.90;;;;;;4996024;28;20203;-84
2022/04/04 00:32:07;;;;;;;5.43;3.20;;;2.40;99.90;;;;;;4995793;28;20175;-83
2022/04/04 00:34:32;;;;;;;7.23;3.17;;;2.40;99.90;;;;;;4996061;28;20207;-84
2022/04/04 00:36:58;;;;;;;4.97;2.70;;;2.50;99.90;;;;;;4994791;28;20628;-84
2022/04/04 00:39:24;;;;;;;3.97;2.80;;;2.40;99.90;;;;;;4995733;28;20179;-84
2022/04/04 00:41:49;;;;;;;4.13;2.93;;;2.40;99.90;;;;;;4995243;28;20180;-83
2022/04/04 00:44:15;;;;;;;5.13;3.20;;;2.40;99.90;;;;;;4995972;28;20164;-84
2022/04/04 00:46:42;;;;;;;5.80;3.40;;;2.40;99.90;;;;;;4995958;28;20622;-85
2022/04/04 00:49:09;;;;;;;7.20;3.20;;;2.40;99.90;;;;;;4996019;28;20172;-84
2022/04/04 00:51:36;;;;;;;5.20;3.17;;;2.40;99.90;;;;;;4995594;28;20512;-84
2022/04/04 00:54:04;;;;;;;3.90;3.10;;;2.40;99.90;;;;;;4995788;28;20200;-84
2022/04/04 00:56:32;;;;;;;3.20;2.73;;;2.40;99.90;;;;;;4995744;28;20206;-84
2022/04/04 00:59:00;;;;;;;3.90;3.30;;;2.40;99.90;;;;;;4995855;28;20175;-82
2022/04/04 01:01:25;;;;;;;3.27;2.70;;;2.40;99.90;;;;;;4995717;28;20175;-84
2022/04/04 01:03:51;;;;;;;4.97;3.30;;;2.40;99.90;;;;;;4995750;28;20180;-84
2022/04/04 01:06:17;;;;;;;4.87;2.87;;;2.40;99.90;;;;;;4995698;28;20172;-84
2022/04/04 01:08:44;;;;;;;4.30;3.17;;;2.40;99.90;;;;;;4995762;28;20207;-85
2022/04/04 01:11:11;;;;;;;4.93;3.50;;;2.40;99.90;;;;;;4995215;28;20179;-84
2022/04/04 01:13:37;;;;;;;5.97;3.33;;;2.40;99.90;;;;;;4995423;28;20677;-84
2022/04/04 01:16:03;;;;;;;4.93;3.13;;;2.40;99.90;;;;;;4995682;28;20199;-84
2022/04/04 01:18:29;;;;;;;3.60;3.17;;;2.40;99.90;;;;;;4995634;28;20176;-83
2022/04/04 01:20:55;;;;;;;5.57;3.50;;;2.50;99.90;;;;;;4995205;28;20229;-84
2022/04/04 01:23:24;;;;;;;4.80;3.50;;;2.40;99.90;;;;;;4995576;28;20164;-84
2022/04/04 01:25:51;;;;;;;5.30;3.10;;;2.40;99.90;;;;;;4977985;28;20245;-85
2022/04/04 01:28:17;;;;;;;5.80;3.17;;;2.40;99.90;;;;;;4995471;28;20170;-83
2022/04/04 01:30:47;;;;;;;4.27;3.40;;;2.50;99.90;;;;;;4995508;28;20265;-83
2022/04/04 01:33:13;;;;;;;4.10;3.43;;;2.40;99.90;;;;;;4994121;28;20239;-85
2022/04/04 01:35:39;;;;;;;5.00;3.30;;;2.40;99.90;;;;;;4993896;28;20270;-85
2022/04/04 01:38:05;;;;;;;5.80;3.70;;;2.40;99.90;;;;;;4994157;28;20199;-84
2022/04/04 01:40:30;;;;;;;5.27;3.90;;;2.50;99.90;;;;;;4994933;28;20219;-85
2022/04/04 01:42:56;;;;;;;4.40;3.80;;;2.50;99.90;;;;;;4995210;28;20503;-85
2022/04/04 01:48:09;;;;;;;6.37;4.10;;;2.50;99.90;;;;;;4995434;28;20269;-84
2022/04/04 01:50:36;;;;;;;7.97;4.40;;;2.50;99.90;;;;;;4995296;28;20183;-85
2022/04/04 01:55:46;;;;;;;5.30;4.17;;;2.50;99.90;;;;;;4995042;28;20211;-83
2022/04/04 01:58:12;;;;;;;5.30;3.93;;;2.50;99.90;;;;;;4995143;28;20176;-85
2022/04/04 02:00:38;;;;;;;5.23;4.30;;;2.50;99.90;;;;;;4995173;28;20225;-85
2022/04/04 02:03:05;;;;;;;4.97;4.20;;;2.50;99.90;;;;;;4995020;28;20175;-83
2022/04/04 02:05:31;;;;;;;5.10;3.90;;;2.50;99.90;;;;;;4995219;28;20171;-83
2022/04/04 02:07:57;;;;;;;4.83;3.67;;;2.50;99.90;;;;;;4996481;28;20176;-85
2022/04/04 02:10:22;;;;;;;4.80;3.90;;;2.50;99.90;;;;;;4998743;28;20187;-83
2022/04/04 02:12:48;;;;;;;4.90;4.03;;;2.50;99.90;;;;;;4998637;28;20183;-83
2022/04/04 02:15:14;;;;;;;6.60;4.20;;;2.50;99.90;;;;;;4998962;28;20199;-83
2022/04/04 02:17:40;;;;;;;7.20;4.33;;;2.50;99.90;;;;;;4999225;28;20182;-84
2022/04/04 02:20:08;;;;;;;4.90;3.90;;;2.50;99.90;;;;;;4997490;28;20187;-84
2022/04/04 02:22:34;;;;;;;5.63;4.23;;;2.50;99.90;;;;;;4999318;28;20219;-84
2022/04/04 02:25:00;;;;;;;6.37;4.00;;;2.50;99.90;;;;;;4998695;28;20157;-84
2022/04/04 02:27:26;;;;;;;10.80;4.77;;;2.50;99.90;;;;;;4998613;28;20176;-85
2022/04/04 02:29:52;;;;;;;5.67;4.43;;;2.50;99.90;;;;;;4998700;28;20176;-85
2022/04/04 02:32:19;;;;;;;4.97;4.10;;;2.50;99.90;;;;;;4998470;28;20626;-81
2022/04/04 02:34:48;;;;;;;5.63;4.53;;;2.50;99.90;;;;;;4998529;28;20219;-82
2022/04/04 02:37:14;;;;;;;6.17;4.30;;;2.50;99.90;;;;;;4998775;28;20164;-84
2022/04/04 02:39:40;;;;;;;4.73;4.13;;;2.50;99.90;;;;;;4998127;28;20488;-84
2022/04/04 02:42:07;;;;;;;5.33;4.43;;;2.60;99.90;;;;;;4998220;28;20180;-86
2022/04/04 02:44:34;;;;;;;5.40;4.27;;;2.60;99.90;;;;;;4998846;28;20325;-85
2022/04/04 02:46:59;;;;;;;4.93;4.23;;;2.60;99.90;;;;;;4998490;28;20164;-83
2022/04/04 02:49:25;;;;;;;8.10;4.67;;;2.50;99.90;;;;;;4998509;28;20174;-85
2022/04/04 02:51:52;;;;;;;6.00;4.80;;;2.50;99.90;;;;;;4998360;28;20176;-84
2022/04/04 02:54:18;;;;;;;6.87;4.47;;;2.60;99.90;;;;;;4998252;28;20557;-85
2022/04/04 02:56:43;;;;;;;7.17;4.77;;;2.60;99.90;;;;;;4997982;28;20196;-85
2022/04/04 02:59:09;;;;;;;6.47;4.40;;;2.60;99.90;;;;;;4997058;28;20713;-82
2022/04/04 03:01:35;;;;;;;6.23;4.27;;;2.60;99.90;;;;;;4998325;28;20231;-85
2022/04/04 03:04:02;;;;;;;7.07;4.53;;;2.60;99.90;;;;;;4997870;28;20168;-85
2022/04/04 03:06:28;;;;;;;6.10;4.57;;;2.60;99.90;;;;;;4998105;28;20160;-85
2022/04/04 03:08:55;;;;;;;9.57;5.30;;;2.50;99.90;;;;;;4997966;28;20172;-85
2022/04/04 03:11:21;;;;;;;6.90;5.00;;;2.60;99.90;;;;;;4996524;28;20184;-84
2022/04/04 03:13:46;;;;;;;7.73;4.77;;;2.50;99.90;;;;;;4997794;28;20582;-82
2022/04/04 03:16:12;;;;;;;8.90;5.30;;;2.60;99.90;;;;;;4998062;28;20211;-82
2022/04/04 03:18:39;;;;;;;7.97;5.13;;;2.60;99.90;;;;;;4997132;28;20187;-83
2022/04/04 03:21:05;;;;;;;10.57;5.50;;;2.60;99.90;;;;;;4997140;28;20224;-84
2022/04/04 03:23:33;;;;;;;5.57;4.87;;;2.60;99.90;;;;;;4997564;28;20217;-83
2022/04/04 03:25:59;;;;;;;6.63;5.20;;;2.60;99.90;;;;;;4997355;28;20176;-84
2022/04/04 03:28:25;;;;;;;9.73;5.53;;;2.60;99.90;;;;;;4997438;28;20179;-84
2022/04/04 03:30:51;;;;;;;6.33;5.73;;;2.50;99.90;;;;;;4997610;28;20176;-82
2022/04/04 03:33:17;;;;;;;7.93;5.90;;;2.60;99.90;;;;;;4997440;28;20164;-84
2022/04/04 03:35:43;;;;;;;6.77;5.50;;;2.60;99.90;;;;;;4996333;28;20208;-84
2022/04/04 03:38:11;;;;;;;7.70;5.50;;;2.60;99.90;;;;;;4997151;28;20226;-82
2022/04/04 03:40:37;;;;;;;6.73;6.03;;;2.60;99.90;;;;;;4997015;28;20622;-84
2022/04/04 03:43:04;;;;;;;8.47;6.10;;;2.50;99.90;;;;;;4996331;28;20486;-84
2022/04/04 03:45:30;;;;;;;8.03;6.10;;;2.60;99.90;;;;;;4997290;28;20550;-85
2022/04/04 03:47:56;;;;;;;9.07;6.70;;;2.50;99.90;;;;;;4996931;28;20624;-84
2022/04/04 03:50:24;;;;;;;11.20;6.60;;;2.50;99.90;;;;;;4997277;28;20176;-86
2022/04/04 03:52:52;;;;;;;9.00;7.23;;;2.50;99.90;;;;;;4996009;28;20169;-84
2022/04/04 03:55:19;;;;;;;8.97;7.30;;;2.50;99.90;;;;;;4997084;28;20204;-85
2022/04/04 03:57:45;;;;;;;8.87;7.10;;;2.50;99.90;;;;;;4997072;28;20518;-85
2022/04/04 04:00:11;;;;;;;10.53;7.70;;;2.50;99.90;;;;;;4997105;28;20251;-84
2022/04/04 04:02:37;;;;;;;8.23;7.30;;;2.50;99.90;;;;;;4995890;28;20656;-84
2022/04/04 04:05:04;;;;;;;10.47;8.07;;;2.40;99.90;;;;;;4995784;28;20176;-83
2022/04/04 04:07:30;;;;;;;11.27;8.43;;;2.40;99.90;;;;;;4997114;28;20211;-84
2022/04/04 04:09:56;;;;;;;11.13;8.50;;;2.40;99.90;;;;;;4997005;28;20207;-84
2022/04/04 04:12:22;;;;;;;10.77;8.87;;;2.40;99.90;;;;;;4996808;28;20179;-85
2022/04/04 04:14:51;;;;;;;10.80;8.30;;;2.40;99.90;;;;;;4996677;28;20236;-85
2022/04/04 04:17:21;;;;;;;8.97;8.07;;;2.40;99.90;;;;;;4996752;28;20165;-83
2022/04/04 04:22:31;;;;;;;13.00;8.63;;;2.40;99.90;;;;;;4996622;28;20258;-85
2022/04/04 04:24:58;;;;;;;10.97;8.20;;;2.40;99.90;;;;;;4996296;28;20169;-84
2022/04/04 04:27:24;;;;;;;12.53;8.60;;;2.40;99.90;;;;;;4996705;28;20258;-85
2022/04/04 04:29:50;;;;;;;11.20;9.47;;;2.40;99.90;;;;;;4996706;28;20251;-86
2022/04/04 04:32:15;;;;;;;13.30;9.13;;;2.40;99.90;;;;;;4994783;28;20180;-82
2022/04/04 04:34:46;;;;;;;10.63;8.97;;;2.40;99.90;;;;;;4996106;28;20294;-82
2022/04/04 04:37:16;;;;;;;12.63;10.00;;;2.40;99.90;;;;;;4996262;28;20160;-84
2022/04/04 04:39:42;;;;;;;10.70;9.60;;;2.40;99.90;;;;;;4994847;28;20164;-85
2022/04/04 04:42:07;;;;;;;16.13;10.30;;;2.40;99.90;;;;;;4976526;28;20176;-85
2022/04/04 04:44:33;;;;;;;15.60;10.37;;;2.40;99.90;;;;;;4976719;28;20235;-85
2022/04/04 04:46:59;;;;;;;11.87;10.20;;;2.40;99.90;;;;;;4976688;28;20482;-83
2022/04/04 04:49:26;;;;;;;11.90;9.67;;;2.40;99.90;;;;;;4975566;28;20223;-80
2022/04/04 04:51:53;;;;;;;13.87;10.57;;;2.40;99.90;;;;;;4976477;28;20170;-83
2022/04/04 04:54:19;;;;;;;12.63;9.87;;;2.40;99.90;;;;;;4975368;28;20520;-84
2022/04/04 04:56:45;;;;;;;12.00;10.03;;;2.40;99.90;;;;;;4975376;28;20224;-83
2022/04/04 04:59:11;;;;;;;12.17;9.90;;;2.40;99.90;;;;;;4976011;28;20169;-83
2022/04/04 05:01:37;;;;;;;11.87;10.10;;;2.40;99.90;;;;;;4976523;28;20187;-84
2022/04/04 05:04:02;;;;;;;13.60;10.30;;;2.40;99.90;;;;;;4975439;28;20600;-83
2022/04/04 05:06:28;;;;;;;11.70;10.13;;;2.40;99.90;;;;;;4976470;28;20173;-85
2022/04/04 05:08:55;;;;;;;12.60;10.47;;;2.40;99.90;;;;;;4976285;28;20188;-85
2022/04/04 05:11:21;;;;;;;12.33;10.47;;;2.40;99.90;;;;;;4990901;28;20264;-82
2022/04/04 05:13:47;;;;;;;14.77;10.57;;;2.40;99.90;;;;;;4995520;28;20175;-84
2022/04/04 05:16:14;;;;;;;12.20;10.30;;;2.40;99.90;;;;;;4995539;28;20204;-83
2022/04/04 05:18:43;;;;;;;14.03;10.07;;;2.40;99.90;;;;;;4995560;28;20176;-84
2022/04/04 05:21:09;;;;;;;11.73;10.03;;;2.50;99.90;;;;;;4995546;28;20258;-84
2022/04/04 05:23:36;;;;;;;12.83;9.90;;;2.50;99.90;;;;;;5002522;28;20198;-84
2022/04/04 05:26:04;;;;;;;13.60;10.90;;;2.60;99.90;;;;;;5007901;28;20506;-84
2022/04/04 05:28:29;;;;;;;14.87;10.17;;;2.60;99.90;;;;;;4994433;28;20179;-84
2022/04/04 05:30:56;;;;;;;12.03;9.43;;;2.60;99.90;;;;;;4994072;28;20487;-84
2022/04/04 05:33:22;;;;;;;14.60;10.13;;;2.60;99.90;;;;;;4993669;28;20183;-84
2022/04/04 05:35:48;;;;;;;11.07;9.33;;;2.60;99.90;;;;;;4995125;28;20212;-84
2022/04/04 05:38:14;;;;;;;10.47;9.33;;;2.70;99.90;;;;;;4995260;28;20168;-83
2022/04/04 05:40:41;;;;;;;12.93;9.27;;;2.70;99.90;;;;;;4993385;28;20192;-84
2022/04/04 05:43:07;;;;;;;13.80;10.07;;;2.80;99.90;;;;;;4999364;28;20561;-84
2022/04/04 05:45:35;;;;;;;12.10;9.57;;;2.80;99.90;;;;;;4996706;28;20281;-84
2022/04/04 05:48:02;;;;;;;10.37;9.23;;;2.80;99.90;;;;;;4995695;28;20180;-88
2022/04/04 05:50:27;;;;;;;11.87;8.80;;;2.90;99.90;;;;;;4994873;28;20326;-81
2022/04/04 05:52:53;;;;;;;10.63;8.53;;;2.90;99.90;;;;;;4995115;28;20259;-85
2022/04/04 05:55:19;;;;;;;12.47;8.37;;;2.90;99.90;;;;;;4994886;28;20319;-87
2022/04/04 05:57:45;;;;;;;16.73;9.17;;;3.00;99.90;;;;;;4994837;28;20614;-82
2022/04/04 06:00:13;;;;;;;10.53;8.30;;;3.00;99.90;;;;;;4999729;28;20200;-83
2022/04/04 06:02:40;;;;;;;13.50;8.77;;;3.10;99.90;;;;;;5014534;28;20180;-84
2022/04/04 06:05:11;;;;;;;10.63;8.00;;;3.10;99.90;;;;;;5014487;28;20237;-84
2022/04/04 06:07:37;;;;;;;9.77;8.33;;;3.10;99.90;;;;;;5013220;28;20183;-82
2022/04/04 06:10:06;;;;;;;9.60;8.43;;;3.20;99.90;;;;;;5009043;28;20213;-84
2022/04/04 06:12:31;;;;;;;10.20;7.93;;;3.20;99.90;;;;;;4994121;28;20198;-84
2022/04/04 06:14:57;;;;;;;10.60;7.90;;;3.20;99.90;;;;;;4994879;28;20639;-81
2022/04/04 06:17:23;;;;;;;10.10;8.30;;;3.20;99.90;;;;;;4994623;28;20489;-82
2022/04/04 06:19:48;;;;;;;8.53;7.30;;;3.30;99.90;;;;;;4994727;28;20502;-83
2022/04/04 06:22:14;;;;;;;12.17;7.60;;;3.40;99.90;;;;;;4994591;28;20634;-83
2022/04/04 06:24:40;;;;;;;8.87;7.07;;;3.40;99.90;;;;;;4994587;28;20634;-80
2022/04/04 06:27:06;;;;;;;10.67;7.30;;;3.40;99.90;;;;;;4994305;28;20219;-82
2022/04/04 06:29:32;;;;;;;9.93;7.57;;;3.50;99.90;;;;;;4994451;28;20591;-79
2022/04/04 06:31:58;;;;;;;9.60;7.07;;;3.50;99.90;;;;;;4993263;28;20280;-83
2022/04/04 06:34:25;;;;;;;9.73;7.17;;;3.50;99.90;;;;;;4993256;28;20180;-83
2022/04/04 06:36:51;;;;;;;10.00;7.03;;;3.50;99.90;;;;;;4994624;28;20170;-82
2022/04/04 06:39:17;;;;;;;7.60;6.53;;;3.60;99.90;;;;;;5002269;28;20215;-82
2022/04/04 06:41:43;;;;;;;11.07;6.70;;;3.60;99.90;;;;;;4996541;28;20243;-83
2022/04/04 06:44:09;;;;;;;11.13;6.97;;;3.70;99.90;;;;;;4994235;28;20313;-84
2022/04/04 06:46:37;;;;;;;9.23;6.80;;;3.80;99.90;;;;;;4993889;28;20279;-83
2022/04/04 06:49:07;;;;;;;7.63;6.40;;;3.80;99.90;;;;;;4994234;28;20314;-82
2022/04/04 06:51:34;;;;;;;7.03;6.13;;;3.80;99.90;;;;;;4994231;28;20198;-83
2022/04/04 06:54:03;;;;;;;8.20;6.00;;;3.80;99.90;;;;;;4995597;28;20182;-81
2022/04/04 06:56:30;;;;;;;9.23;6.03;;;3.90;99.90;;;;;;4997217;28;20225;-80
2022/04/04 06:58:56;;;;;;;8.93;5.73;;;4.00;99.90;;;;;;4997778;28;20175;-82
2022/04/04 07:01:22;;;;;;;8.13;5.70;;;4.00;99.90;;;;;;5002674;28;20193;-83
2022/04/04 07:03:48;;;;;;;6.13;5.20;;;4.10;99.90;;;;;;4995959;28;20232;-82
2022/04/04 07:06:13;;;;;;;8.07;5.87;;;4.10;99.90;;;;;;4996325;28;20190;-81
2022/04/04 07:08:39;;;;;;;7.53;5.50;;;4.10;99.90;;;;;;5001725;28;20194;-82
2022/04/04 07:11:08;;;;;;;7.27;5.50;;;4.20;99.90;;;;;;5004273;28;20190;-82
2022/04/04 07:13:34;;;;;;;15.27;6.27;;;4.20;99.90;;;;;;5004064;28;20266;-82
2022/04/04 07:15:59;;;;;;;9.93;5.03;;;4.20;99.90;;;;;;5005381;28;20301;-80
2022/04/04 07:18:25;;;;;;;8.83;5.30;;;4.30;99.90;;;;;;5006510;28;20234;-82
2022/04/04 07:20:51;;;;;;;8.20;5.57;;;4.30;99.90;;;;;;5005247;28;20226;-82
2022/04/04 07:23:16;;;;;;;7.47;4.67;;;4.20;99.90;;;;;;5016790;28;20171;-84
2022/04/04 07:25:42;;;;;;;7.33;5.50;;;4.20;99.90;;;;;;5008301;28;20269;-84
2022/04/04 07:28:08;;;;;;;8.50;5.90;;;4.30;99.90;;;;;;4997170;28;20222;-84
2022/04/04 07:30:34;;;;;;;9.43;5.63;;;4.20;99.90;;;;;;4997390;28;20176;-83
2022/04/04 07:33:03;;;;;;;11.13;5.73;;;4.30;99.90;;;;;;4997338;28;20169;-81
2022/04/04 07:35:29;;;;;;;7.60;5.70;;;4.30;99.90;;;;;;4997236;28;20223;-85
2022/04/04 07:37:54;;;;;;;8.20;5.60;;;4.30;99.90;;;;;;4997064;28;20168;-82
2022/04/04 07:40:21;;;;;;;8.27;6.00;;;4.40;99.90;;;;;;4995903;28;20190;-81
2022/04/04 07:42:47;;;;;;;8.67;5.47;;;4.50;99.90;;;;;;5000426;28;20245;-82
2022/04/04 07:45:15;;;;;;;8.17;5.80;;;4.50;99.90;;;;;;5008290;28;20194;-85
2022/04/04 07:47:42;;;;;;;6.97;5.17;;;4.60;99.90;;;;;;5006772;28;20632;-83
2022/04/04 07:50:10;;;;;;;6.37;5.40;;;4.60;99.90;;;;;;5007680;28;20178;-82
2022/04/04 07:52:36;;;;;;;7.80;5.57;;;4.70;99.90;;;;;;5000147;28;20622;-82
2022/04/04 07:55:02;;;;;;;7.53;5.50;;;4.80;99.90;;;;;;5004316;28;20199;-82
2022/04/04 07:57:28;;;;;;;6.73;5.30;;;4.90;99.90;;;;;;4995759;28;20213;-83
2022/04/04 07:59:54;;;;;;;8.03;6.00;;;4.90;99.90;;;;;;5015236;28;20218;-82
2022/04/04 08:02:20;;;;;;;6.10;5.37;;;5.00;99.90;;;;;;5016080;28;20175;-82
2022/04/04 08:04:45;;;;;;;7.70;5.57;;;5.00;99.90;;;;;;5011234;28;20226;-84
2022/04/04 08:07:12;;;;;;;8.50;5.43;;;5.00;99.90;;;;;;5002706;28;20217;-83
2022/04/04 08:09:38;;;;;;;9.33;5.80;;;5.00;99.90;;;;;;5000067;28;20191;-84
2022/04/04 08:12:04;;;;;;;7.20;5.37;;;5.10;99.90;;;;;;5006295;28;20618;-83
2022/04/04 08:14:30;;;;;;;6.10;5.50;;;5.10;99.90;;;;;;4995124;28;20619;-83
2022/04/04 08:16:56;;;;;;;7.90;5.70;;;5.00;99.90;;;;;;5007307;28;20183;-86
2022/04/04 08:19:21;;;;;;;8.23;5.67;;;5.00;99.90;;;;;;5014340;28;20164;-86
2022/04/04 08:21:47;;;;;;;10.17;5.93;;;5.00;99.90;;;;;;5005085;28;20567;-84
2022/04/04 08:24:13;;;;;;;9.40;5.40;;;5.10;99.90;;;;;;4995302;28;20187;-84
2022/04/04 08:26:39;;;;;;;8.37;5.30;;;5.10;99.90;;;;;;4996077;28;20176;-83
2022/04/04 08:29:08;;;;;;;9.23;5.60;;;5.00;99.90;;;;;;4996391;28;20191;-82
2022/04/04 08:31:34;;;;;;;7.93;5.27;;;5.10;99.90;;;;;;4995673;28;20182;-85
2022/04/04 08:33:59;;;;;;;11.57;5.57;;;5.00;99.90;;;;;;4995090;28;20183;-85
2022/04/04 08:36:25;;;;;;;6.73;5.27;;;5.10;99.90;;;;;;4996324;28;20670;-84
2022/04/04 08:38:51;;;;;;;6.17;4.80;;;5.20;99.90;;;;;;5004788;28;20171;-83
2022/04/04 08:41:17;;;;;;;7.07;5.20;;;5.20;99.90;;;;;;5001132;28;20187;-83
2022/04/04 08:43:49;;;;;;;7.33;4.90;;;5.20;99.90;;;;;;5000894;28;20172;-84
2022/04/04 08:46:16;;;;;;;7.47;5.07;;;5.20;99.90;;;;;;5015515;28;20159;-85
2022/04/04 08:48:42;;;;;;;9.20;5.17;;;5.30;99.90;;;;;;5005432;28;20198;-83
2022/04/04 08:51:08;;;;;;;11.87;4.73;;;5.30;99.90;;;;;;4996002;28;20172;-83
2022/04/04 08:53:36;;;;;;;7.43;5.13;;;5.30;99.90;;;;;;4996074;28;20172;-84
2022/04/04 08:56:04;;;;;;;6.67;5.43;;;5.40;99.90;;;;;;4995607;28;20211;-83
2022/04/04 08:58:30;;;;;;;6.87;5.30;;;5.40;99.90;;;;;;4996008;28;20171;-83
2022/04/04 09:00:56;;;;;;;19.87;5.17;;;5.40;99.90;;;;;;4995388;28;20176;-82
2022/04/04 09:03:26;;;;;;;8.90;4.50;;;5.50;99.90;;;;;;4999245;28;20179;-82
2022/04/04 09:05:54;;;;;;;6.50;4.57;;;5.60;99.90;;;;;;5013753;28;20221;-81
2022/04/04 09:08:20;;;;;;;13.97;4.70;;;5.50;99.90;;;;;;5015211;28;20178;-81
2022/04/04 09:10:50;;;;;;;7.40;4.60;;;5.50;99.90;;;;;;5004910;28;20188;-80
2022/04/04 09:13:19;;;;;;;6.03;4.60;;;5.50;99.90;;;;;;4995469;28;20179;-81
2022/04/04 09:16:06;;;;;;;31.70;5.63;;;5.70;99.90;;;;;;4995146;28;20212;-81
2022/04/04 09:18:39;;;;;;;14.00;4.33;;;5.70;99.90;;;;;;4994411;28;20244;-82
2022/04/04 09:21:11;;;;;;;11.40;4.63;;;5.60;99.90;;;;;;4993987;28;20237;-81
2022/04/04 09:23:54;;;;;;;6.63;4.50;;;5.60;99.90;;;;;;4995179;28;20247;-80
2022/04/04 09:26:45;;;;;;;7.43;4.30;;;5.70;99.90;;;;;;5010107;28;20190;-82
2022/04/04 09:29:17;;;;;;;10.60;5.00;;;5.70;99.90;;;;;;5014242;28;20216;-82
2022/04/04 09:32:08;;;;;;;8.33;4.33;;;5.70;99.90;;;;;;5009851;28;20195;-83
2022/04/04 09:35:08;;;;;;;8.23;4.70;;;5.70;99.90;;;;;;5010347;28;20257;-81
2022/04/04 09:37:36;;;;;;;6.47;4.00;;;5.70;99.90;;;;;;4995308;28;20215;-83
2022/04/04 09:40:14;;;;;;;6.37;3.80;;;5.90;99.90;;;;;;4995145;28;20187;-82
2022/04/04 09:42:40;;;;;;;16.07;4.73;;;5.80;99.90;;;;;;4994684;28;20513;-81
2022/04/04 09:45:12;;;;;;;5.27;4.10;;;5.90;99.90;;;;;;5002590;28;20175;-81
2022/04/04 09:47:46;;;;;;;6.73;4.30;;;5.90;99.90;;;;;;5013632;28;20179;-82
2022/04/04 09:50:41;;;;;;;20.80;4.23;;;5.80;99.90;;;;;;5014468;28;20242;-82
2022/04/04 09:53:20;;;;;;;9.57;4.57;;;5.80;99.90;;;;;;5013214;28;20183;-83
2022/04/04 09:55:48;;;;;;;8.23;4.37;;;5.80;99.90;;;;;;5009620;28;20220;-83
2022/04/04 09:58:16;;;;;;;10.13;4.17;;;5.80;99.90;;;;;;4996224;28;20492;-83
2022/04/04 10:00:44;;;;;;;7.27;4.30;;;5.80;99.90;;;;;;5001548;28;20195;-82
2022/04/04 10:03:14;;;;;;;13.53;4.20;;;5.80;99.90;;;;;;5010933;28;20203;-82
2022/04/04 10:05:42;;;;;;;6.87;4.10;;;5.80;99.90;;;;;;5006278;28;20202;-81
2022/04/04 10:08:17;;;;;;;7.83;4.40;;;5.80;99.90;;;;;;4993169;28;20172;-82
2022/04/04 10:10:44;;;;;;;8.27;4.00;;;5.90;99.90;;;;;;5003047;28;20187;-81
2022/04/04 10:13:12;;;;;;;6.20;3.77;;;6.10;99.90;;;;;;4992907;28;20210;-84
2022/04/04 10:15:38;;;;;;;6.40;4.07;;;6.20;99.90;;;;;;4996909;28;20756;-84
2022/04/04 10:18:06;;;;;;;5.13;3.93;;;6.20;99.90;;;;;;4994407;28;20204;-83
2022/04/04 10:20:32;;;;;;;6.27;3.70;;;6.20;99.90;;;;;;4995018;28;20260;-83
2022/04/04 10:22:58;;;;;;;5.50;3.90;;;6.00;99.90;;;;;;4993094;28;20716;-83
2022/04/04 10:25:26;;;;;;;8.40;4.53;;;5.80;99.90;;;;;;4994619;28;20168;-82
2022/04/04 10:27:53;;;;;;;9.80;4.20;;;5.80;99.90;;;;;;4994267;28;20612;-81
2022/04/04 10:30:40;;;;;;;6.07;3.90;;;5.70;99.90;;;;;;5000687;28;20302;-82
2022/04/04 10:33:18;;;;;;;5.33;4.07;;;5.70;99.90;;;;;;5002291;28;20172;-81
2022/04/04 10:36:07;;;;;;;8.27;4.70;;;5.60;99.90;;;;;;5003956;28;20204;-80
2022/04/04 10:38:44;;;;;;;5.87;4.70;;;5.50;99.90;;;;;;5005963;28;20179;-81
2022/04/04 10:41:10;;;;;;;6.37;4.40;;;5.30;99.90;;;;;;5003320;28;20192;-79
2022/04/04 10:43:43;;;;;;;9.07;5.57;;;5.10;99.90;;;;;;5008161;28;20185;-79
2022/04/04 10:46:11;;;;;;;8.37;5.13;;;5.10;99.90;;;;;;5011615;28;20269;-80
2022/04/04 10:48:42;;;;;;;6.07;4.80;;;5.10;99.90;;;;;;5017494;28;20251;-81
2022/04/04 10:51:17;;;;;;;7.23;5.27;;;5.10;99.90;;;;;;5017610;28;20179;-80
2022/04/04 10:54:03;;;;;;;6.80;5.17;;;5.10;99.90;;;;;;5017393;28;20575;-81
2022/04/04 10:56:47;;;;;;;8.60;5.43;;;5.00;99.90;;;;;;5017297;28;20211;-81
2022/04/04 10:59:16;;;;;;;8.03;5.20;;;5.20;99.90;;;;;;5017774;28;20538;-82
2022/04/04 11:01:43;;;;;;;8.23;4.40;;;5.30;99.90;;;;;;5017416;28;20190;-81
2022/04/04 11:04:26;;;;;;;6.33;4.60;;;5.40;99.90;;;;;;5017172;28;20182;-82
2022/04/04 11:09:57;;;;;;;5.70;4.87;;;5.50;99.90;;;;;;4999172;28;20194;-82
2022/04/04 11:12:25;;;;;;;8.43;4.73;;;5.40;99.90;;;;;;4995059;28;20187;-79
2022/04/04 11:15:11;;;;;;;8.77;5.00;;;5.40;99.90;;;;;;4997663;28;20239;-80
2022/04/04 11:17:57;;;;;;;10.70;5.23;;;5.40;99.90;;;;;;4997298;28;20227;-82
2022/04/04 11:20:31;;;;;;;7.73;5.13;;;5.30;99.90;;;;;;4997624;28;20199;-82
2022/04/04 11:23:03;;;;;;;9.23;5.63;;;5.30;99.90;;;;;;5016199;28;20310;-80
2022/04/04 11:25:34;;;;;;;7.13;5.83;;;5.30;99.90;;;;;;5016858;28;20163;-80
2022/04/04 11:28:01;;;;;;;7.07;5.57;;;5.20;99.90;;;;;;5016600;28;20197;-85
2022/04/04 11:30:27;;;;;;;7.77;5.57;;;5.10;99.90;;;;;;5010091;28;20327;-80
2022/04/04 11:32:57;;;;;;;7.67;5.97;;;5.10;99.90;;;;;;4995885;28;20270;-80
2022/04/04 11:35:27;;;;;;;7.73;6.50;;;4.90;99.90;;;;;;4995969;28;20211;-80
2022/04/04 11:37:57;;;;;;;8.27;6.63;;;4.90;99.90;;;;;;4997269;28;20167;-82
2022/04/04 11:40:34;;;;;;;8.97;7.00;;;4.80;99.90;;;;;;4994797;28;20334;-82
2022/04/04 11:43:02;;;;;;;9.63;6.80;;;4.80;99.90;;;;;;4996901;28;20239;-81
2022/04/04 11:45:33;;;;;;;9.37;6.63;;;4.70;99.90;;;;;;4997174;28;20244;-82
2022/04/04 11:48:04;;;;;;;9.30;6.80;;;4.60;99.90;;;;;;4996838;28;20166;-80
2022/04/04 11:50:34;;;;;;;11.87;6.87;;;4.60;99.90;;;;;;4995919;28;20176;-82
2022/04/04 11:53:05;;;;;;;10.37;7.13;;;4.50;99.90;;;;;;4996038;28;20181;-80
2022/04/04 11:55:32;;;;;;;8.53;6.80;;;4.40;99.90;;;;;;4995642;28;20203;-81
2022/04/04 11:58:03;;;;;;;14.07;7.20;;;4.40;99.90;;;;;;4996543;28;20604;-80
2022/04/04 12:00:32;;;;;;;9.63;7.80;;;4.40;99.90;;;;;;4996677;28;20168;-81
2022/04/04 12:03:03;;;;;;;8.23;7.30;;;4.40;99.90;;;;;;4995400;28;20237;-80
2022/04/04 12:05:31;;;;;;;8.90;7.13;;;4.40;99.90;;;;;;4996937;28;20174;-81
2022/04/04 12:07:58;;;;;;;9.10;7.60;;;4.40;99.90;;;;;;4996502;28;20172;-81
2022/04/04 12:10:32;;;;;;;9.10;7.77;;;4.40;99.90;;;;;;4995431;28;20189;-81
2022/04/04 12:13:10;;;;;;;12.03;7.80;;;4.40;99.90;;;;;;4996188;28;20160;-80
2022/04/04 12:15:38;;;;;;;9.63;7.57;;;4.40;99.90;;;;;;4996289;28;20677;-80
2022/04/04 12:18:05;;;;;;;11.57;8.17;;;4.40;99.90;;;;;;4995180;28;20528;-80
2022/04/04 12:20:44;;;;;;;10.63;7.60;;;4.40;99.90;;;;;;4995147;28;20242;-81
2022/04/04 12:25:59;;;;;;;9.97;7.87;;;4.30;99.90;;;;;;4996885;28;20198;-81
2022/04/04 12:28:29;;;;;;;9.70;7.77;;;4.30;99.90;;;;;;4994826;28;20179;-79
2022/04/04 12:30:56;;;;;;;11.00;8.50;;;4.30;99.90;;;;;;4995099;28;20202;-80
2022/04/04 12:33:32;;;;;;;9.40;7.90;;;4.30;99.90;;;;;;4995807;28;20176;-81
2022/04/04 12:35:58;;;;;;;10.27;8.47;;;4.30;99.90;;;;;;4995870;28;20647;-81
2022/04/04 12:38:36;;;;;;;9.87;7.47;;;4.30;99.90;;;;;;4994693;28;20183;-82
2022/04/04 12:41:05;;;;;;;10.57;8.57;;;4.20;99.90;;;;;;4991139;28;20514;-82
2022/04/04 12:43:31;;;;;;;10.00;8.20;;;4.30;99.90;;;;;;5013905;28;20179;-81
2022/04/04 12:45:56;;;;;;;12.00;8.60;;;4.30;99.90;;;;;;5014074;28;20522;-81
2022/04/04 12:48:30;;;;;;;11.30;9.07;;;4.30;99.90;;;;;;5014107;28;20187;-81
2022/04/04 12:50:56;;;;;;;10.07;8.27;;;4.20;99.90;;;;;;5014128;28;20221;-83
2022/04/04 12:53:22;;;;;;;11.30;8.87;;;4.20;99.90;;;;;;5015125;28;20174;-83
2022/04/04 12:56:06;;;;;;;10.37;8.23;;;4.20;99.90;;;;;;5014099;28;20217;-83
2022/04/04 12:58:33;;;;;;;9.17;7.73;;;4.20;99.90;;;;;;5013563;28;20231;-81
2022/04/04 13:01:12;;;;;;;9.47;8.50;;;4.20;99.90;;;;;;5014092;28;20177;-82
2022/04/04 13:03:53;;;;;;;16.40;9.20;;;4.30;99.90;;;;;;4994514;28;20179;-82
2022/04/04 13:06:20;;;;;;;10.60;8.50;;;4.30;99.90;;;;;;4996880;28;20220;-81
2022/04/04 13:09:12;;;;;;;10.00;8.37;;;4.20;99.90;;;;;;5011489;28;20609;-83
2022/04/04 13:11:48;;;;;;;8.63;7.73;;;4.30;99.90;;;;;;4988862;28;20194;-82
2022/04/04 13:14:14;;;;;;;10.00;8.67;;;4.30;99.90;;;;;;4995373;28;20179;-83